Terminal Aerodrome Forecast
Issued by NWS

Home | Current Version | Previous Version | Text Only | Print | Product List | Glossary On
Versions: 1 2 3 4 5 6 7 8 9 10 11 12 13
000
FTUS45 KABQ 241743
TAFROW
TAF
KROW 241743Z 2418/2518 14011KT P6SM FEW110
      TEMPO 2420/2424 15011G21KT SCT120
     FM250400 VRB05KT P6SM SCT120
     FM250900 02011KT P6SM FEW120=

USA.gov is the U.S. government's official web portal to all federal, state and local government web resources and services.